createdAt,value
2022-08-17T00:00:33.355Z,16.92
2022-08-17T00:03:11.478Z,10.93
2022-08-17T00:05:43.875Z,15.57
2022-08-17T00:08:14.630Z,9.43
2022-08-17T00:10:44.561Z,12.52
2022-08-17T00:13:18.865Z,13.30
2022-08-17T00:15:46.722Z,11.35
2022-08-17T00:19:00.382Z,16.48
2022-08-17T00:21:10.474Z,16.02
2022-08-17T00:23:47.788Z,12.88
2022-08-17T00:26:43.442Z,10.65
2022-08-17T00:29:07.646Z,13.18
2022-08-17T00:31:37.811Z,13.35
2022-08-17T00:34:08.895Z,13.60
2022-08-17T00:36:36.401Z,11.18
2022-08-17T00:39:05.087Z,13.00
2022-08-17T00:41:32.824Z,15.63
2022-08-17T00:44:02.633Z,17.17
2022-08-17T00:46:36.948Z,10.07
2022-08-17T00:49:06.220Z,14.48
2022-08-17T00:51:44.447Z,15.38
2022-08-17T00:54:20.863Z,14.98
2022-08-17T00:56:53.097Z,14.45
2022-08-17T00:59:24.179Z,15.23
2022-08-17T01:01:52.323Z,11.95
2022-08-17T01:04:22.713Z,12.65
2022-08-17T01:06:51.302Z,14.70
2022-08-17T01:09:19.752Z,14.98
2022-08-17T01:11:53.248Z,14.95
2022-08-17T01:14:23.762Z,15.32
2022-08-17T01:16:54.578Z,10.50
2022-08-17T01:19:26.332Z,16.08
2022-08-17T01:21:57.486Z,18.55
2022-08-17T01:24:25.068Z,21.25
2022-08-17T01:26:52.009Z,15.45
2022-08-17T01:29:22.015Z,12.02
2022-08-17T01:31:58.038Z,21.08
2022-08-17T01:34:28.210Z,19.65
2022-08-17T01:37:10.071Z,13.38
2022-08-17T01:39:44.502Z,9.30
2022-08-17T01:42:23.561Z,18.55
2022-08-17T01:44:57.052Z,10.60
2022-08-17T01:47:24.348Z,33.70
2022-08-17T01:49:51.313Z,20.52
2022-08-17T01:52:19.259Z,18.25
2022-08-17T01:54:47.828Z,17.35
2022-08-17T01:57:15.293Z,14.88
2022-08-17T01:59:42.669Z,14.38
2022-08-17T02:02:10.415Z,18.85
2022-08-17T02:04:37.368Z,18.58
2022-08-17T02:07:05.474Z,13.75
2022-08-17T02:09:32.477Z,12.68
2022-08-17T02:12:38.358Z,16.30
2022-08-17T02:14:52.038Z,13.07
2022-08-17T02:17:18.989Z,13.60
2022-08-17T02:19:46.199Z,10.30
2022-08-17T02:22:13.728Z,13.48
2022-08-17T02:25:00.858Z,14.32
2022-08-17T02:27:29.604Z,10.55
2022-08-17T02:29:56.539Z,10.07
2022-08-17T02:32:28.061Z,10.98
2022-08-17T02:34:57.773Z,14.50
2022-08-17T02:37:26.139Z,10.00
2022-08-17T02:39:53.616Z,13.88
2022-08-17T02:42:28.068Z,16.48
2022-08-17T02:44:55.407Z,13.85
2022-08-17T02:47:22.480Z,11.95
2022-08-17T02:49:55.382Z,11.38
2022-08-17T02:52:53.520Z,17.00
2022-08-17T02:55:15.652Z,13.07
2022-08-17T02:57:43.572Z,12.77
2022-08-17T03:00:18.437Z,16.08
2022-08-17T03:02:45.948Z,12.77
2022-08-17T03:05:16.411Z,17.80
2022-08-17T03:07:45.898Z,14.02
2022-08-17T03:10:14.566Z,14.23
2022-08-17T03:12:43.479Z,15.57
2022-08-17T03:15:27.686Z,12.30
2022-08-17T03:17:56.817Z,16.40
2022-08-17T03:20:25.029Z,9.93
2022-08-17T03:22:55.843Z,10.82
2022-08-17T03:25:34.412Z,20.70
2022-08-17T03:28:02.311Z,12.88
2022-08-17T03:30:29.731Z,15.75
2022-08-17T03:33:00.204Z,16.48
2022-08-17T03:35:31.067Z,17.30
2022-08-17T03:38:00.792Z,13.55
2022-08-17T03:40:55.691Z,11.23
2022-08-17T03:43:18.310Z,14.45
2022-08-17T03:46:03.614Z,17.75
2022-08-17T03:48:52.523Z,18.10
2022-08-17T03:51:42.084Z,13.73
2022-08-17T03:54:29.376Z,16.52
2022-08-17T03:57:06.478Z,39.22
2022-08-17T03:59:35.282Z,90.97
2022-08-17T04:02:09.670Z,111.20
2022-08-17T04:04:38.358Z,115.25
2022-08-17T04:07:06.292Z,71.60
2022-08-17T04:09:33.666Z,75.97
2022-08-17T04:12:04.728Z,72.25
2022-08-17T04:14:51.841Z,68.13
2022-08-17T04:17:27.149Z,94.60
2022-08-17T04:19:55.575Z,104.03
2022-08-17T04:22:33.039Z,88.93
2022-08-17T04:25:05.266Z,91.95
2022-08-17T04:27:32.808Z,110.93
2022-08-17T04:29:59.829Z,109.78
2022-08-17T04:33:03.989Z,85.68
2022-08-17T04:35:22.978Z,77.03
2022-08-17T04:37:51.410Z,68.70
2022-08-17T04:40:39.408Z,47.33
2022-08-17T04:43:29.089Z,55.53
2022-08-17T04:46:02.497Z,42.95
2022-08-17T04:48:36.512Z,35.45
2022-08-17T04:51:19.679Z,24.20
2022-08-17T04:53:54.570Z,16.85
2022-08-17T04:56:24.118Z,20.98
2022-08-17T04:58:53.762Z,23.83
2022-08-17T05:01:24.003Z,19.33
2022-08-17T05:03:58.189Z,19.20
2022-08-17T05:06:26.971Z,15.00
2022-08-17T05:08:54.633Z,15.52
2022-08-17T05:11:23.558Z,17.95
2022-08-17T05:13:50.557Z,13.45
2022-08-17T05:16:19.995Z,17.90
2022-08-17T05:18:47.649Z,17.92
2022-08-17T05:21:15.690Z,21.50
2022-08-17T05:23:43.799Z,18.42
2022-08-17T05:26:25.694Z,24.45
2022-08-17T05:28:59.781Z,19.10
2022-08-17T05:31:30.908Z,21.75
2022-08-17T05:33:58.084Z,16.42
2022-08-17T05:36:41.592Z,21.05
2022-08-17T05:39:15.868Z,20.10
2022-08-17T05:41:48.010Z,18.95
2022-08-17T05:44:16.900Z,16.08
2022-08-17T05:46:50.295Z,15.18
2022-08-17T05:49:23.989Z,14.13
2022-08-17T05:52:00.271Z,16.95
2022-08-17T05:54:57.771Z,16.77
2022-08-17T05:57:57.017Z,17.40
2022-08-17T06:00:35.861Z,14.93
2022-08-17T06:03:19.054Z,15.35
2022-08-17T06:05:49.919Z,15.65
2022-08-17T06:08:17.852Z,19.70
2022-08-17T06:11:21.006Z,15.55
2022-08-17T06:13:58.896Z,19.67
2022-08-17T06:16:34.280Z,18.73
2022-08-17T06:19:17.777Z,21.50
2022-08-17T06:21:49.174Z,14.20
2022-08-17T06:24:25.121Z,16.63
2022-08-17T06:26:54.271Z,19.37
2022-08-17T06:29:27.222Z,22.30
2022-08-17T06:31:54.575Z,20.17
2022-08-17T06:34:22.185Z,20.67
2022-08-17T06:37:27.548Z,14.70
2022-08-17T06:40:33.304Z,20.05
2022-08-17T06:43:34.121Z,15.20
2022-08-17T06:46:18.547Z,14.77
2022-08-17T06:48:52.480Z,21.45
2022-08-17T06:51:33.753Z,24.88
2022-08-17T06:54:10.531Z,15.98
2022-08-17T06:56:54.155Z,21.20
2022-08-17T06:59:56.397Z,16.92
2022-08-17T07:02:55.894Z,14.98
2022-08-17T07:05:31.045Z,17.50
2022-08-17T07:08:29.180Z,16.60
2022-08-17T07:11:03.159Z,20.75
2022-08-17T07:13:55.671Z,18.33
2022-08-17T07:16:32.675Z,16.52
2022-08-17T07:19:00.639Z,19.92
2022-08-17T07:21:52.088Z,24.42
2022-08-17T07:24:41.836Z,18.08
2022-08-17T07:27:27.774Z,16.08
2022-08-17T07:29:59.404Z,20.30
2022-08-17T07:32:31.915Z,17.45
2022-08-17T07:35:19.939Z,14.60
2022-08-17T07:37:54.234Z,15.73
2022-08-17T07:40:28.880Z,16.42
2022-08-17T07:43:15.633Z,19.65
2022-08-17T07:46:22.011Z,17.60
2022-08-17T07:48:54.372Z,13.32
2022-08-17T07:51:31.619Z,17.85
2022-08-17T07:54:14.020Z,14.63
2022-08-17T07:56:56.696Z,17.52
2022-08-17T07:59:28.676Z,20.23
2022-08-17T08:02:18.381Z,18.90
2022-08-17T08:05:29.932Z,20.90
2022-08-17T08:08:18.979Z,20.25
2022-08-17T08:11:01.877Z,11.82
2022-08-17T08:13:32.661Z,13.95
2022-08-17T08:16:20.026Z,11.77
2022-08-17T08:18:54.843Z,10.07
2022-08-17T08:21:47.289Z,11.75
2022-08-17T08:24:31.536Z,15.02
2022-08-17T08:27:07.336Z,10.70
2022-08-17T08:30:05.118Z,14.02
2022-08-17T08:32:50.287Z,22.05
2022-08-17T08:35:40.683Z,16.77
2022-08-17T08:38:25.569Z,16.95
2022-08-17T08:41:07.057Z,23.20
2022-08-17T08:44:07.013Z,14.40
2022-08-17T08:47:28.580Z,16.27
2022-08-17T08:50:38.208Z,19.50
2022-08-17T08:53:25.587Z,17.70
2022-08-17T08:56:06.803Z,21.85
2022-08-17T08:58:56.151Z,22.90
2022-08-17T09:01:23.952Z,25.67
2022-08-17T09:04:25.748Z,15.05
2022-08-17T09:07:01.758Z,19.17
2022-08-17T09:10:08.308Z,16.17
2022-08-17T09:13:09.168Z,12.30
2022-08-17T09:15:48.627Z,14.75
2022-08-17T09:19:00.223Z,16.15
2022-08-17T09:21:50.738Z,21.65
2022-08-17T09:24:43.459Z,13.52
2022-08-17T09:27:20.781Z,18.67
2022-08-17T09:30:02.773Z,16.63
2022-08-17T09:32:57.438Z,10.75
2022-08-17T09:35:37.026Z,14.93
2022-08-17T09:38:35.619Z,12.48
2022-08-17T09:41:31.527Z,15.23
2022-08-17T09:44:26.399Z,14.20
2022-08-17T09:46:56.164Z,11.32
2022-08-17T09:49:35.676Z,14.75
2022-08-17T09:52:24.899Z,17.10
2022-08-17T09:54:55.348Z,17.45
2022-08-17T09:57:40.948Z,17.73
2022-08-17T10:00:17.324Z,17.42
2022-08-17T10:03:22.258Z,13.32
2022-08-17T10:06:09.101Z,16.55
2022-08-17T10:11:52.229Z,14.70
2022-08-17T10:14:37.887Z,14.15
2022-08-17T10:17:15.034Z,19.00
2022-08-17T10:19:54.099Z,15.82
2022-08-17T10:23:00.430Z,11.43
2022-08-17T10:25:55.032Z,12.82
2022-08-17T10:28:30.320Z,15.93
2022-08-17T10:31:30.859Z,9.45
2022-08-17T10:34:08.228Z,13.43
2022-08-17T10:36:50.262Z,8.90
2022-08-17T10:39:34.755Z,10.82
2022-08-17T10:42:32.427Z,13.98
2022-08-17T10:45:16.893Z,13.75
2022-08-17T10:48:05.823Z,13.60
2022-08-17T10:51:03.668Z,13.73
2022-08-17T10:53:33.701Z,12.07
2022-08-17T10:56:15.194Z,10.13
2022-08-17T10:58:54.474Z,17.52
2022-08-17T11:01:47.744Z,19.05
2022-08-17T11:04:42.038Z,10.52
2022-08-17T11:07:44.089Z,16.27
2022-08-17T11:11:04.455Z,11.88
2022-08-17T11:14:09.442Z,14.05
2022-08-17T11:17:01.688Z,12.13
2022-08-17T11:19:53.021Z,10.70
2022-08-17T11:22:33.602Z,14.07
2022-08-17T11:25:20.801Z,14.63
2022-08-17T11:27:54.011Z,8.82
2022-08-17T11:42:27.092Z,10.70
2022-08-17T11:48:27.044Z,12.15
2022-08-17T11:51:19.125Z,7.97
2022-08-17T11:53:46.881Z,8.48
2022-08-17T11:56:35.206Z,10.13
2022-08-17T11:59:23.781Z,6.43
2022-08-17T12:01:56.805Z,8.98
2022-08-17T12:04:32.706Z,27.20
2022-08-17T12:09:50.992Z,7.35
2022-08-17T12:12:22.899Z,10.77
2022-08-17T12:15:12.903Z,12.57
2022-08-17T12:17:52.025Z,9.02
2022-08-17T12:20:40.743Z,12.82
2022-08-17T12:23:41.947Z,8.23
2022-08-17T12:26:22.481Z,8.18
2022-08-17T12:28:57.445Z,8.70
2022-08-17T12:31:35.540Z,12.60
2022-08-17T12:34:05.127Z,10.10
2022-08-17T12:36:33.436Z,10.13
2022-08-17T12:39:12.852Z,16.40
2022-08-17T12:41:50.308Z,12.63
2022-08-17T12:44:19.551Z,8.48
2022-08-17T12:46:54.850Z,8.45
2022-08-17T12:49:32.605Z,10.50
2022-08-17T12:52:20.055Z,15.18
2022-08-17T12:55:06.810Z,13.52
2022-08-17T12:57:44.398Z,14.93
2022-08-17T13:00:18.174Z,9.95
2022-08-17T13:03:19.323Z,6.53
2022-08-17T13:05:53.080Z,10.38
2022-08-17T13:08:38.210Z,7.63
2022-08-17T13:11:18.862Z,8.55
2022-08-17T13:13:56.888Z,7.13
2022-08-17T13:16:27.798Z,8.45
2022-08-17T13:19:15.786Z,10.52
2022-08-17T13:21:52.109Z,15.45
2022-08-17T13:24:26.304Z,3.55
2022-08-17T13:27:08.157Z,5.40
2022-08-17T13:29:44.783Z,4.78
2022-08-17T13:32:16.495Z,7.95
2022-08-17T13:35:12.325Z,5.05
2022-08-17T13:37:40.688Z,11.07
2022-08-17T13:40:09.980Z,4.28
2022-08-17T13:42:51.629Z,9.77
2022-08-17T13:45:35.095Z,7.22
2022-08-17T13:48:07.681Z,15.18
2022-08-17T13:50:37.030Z,5.85
2022-08-17T13:53:18.110Z,5.03
2022-08-17T13:56:08.200Z,4.63
2022-08-17T13:58:54.954Z,7.47
2022-08-17T14:01:41.559Z,9.13
2022-08-17T14:04:18.872Z,6.05
2022-08-17T14:06:54.385Z,6.28
2022-08-17T14:09:29.206Z,5.28
2022-08-17T14:11:59.673Z,5.57
2022-08-17T14:14:27.595Z,5.03
2022-08-17T14:16:57.279Z,8.43
2022-08-17T14:19:25.464Z,3.67
2022-08-17T14:21:59.321Z,7.43
2022-08-17T14:24:39.991Z,7.20
2022-08-17T14:27:10.323Z,4.82
2022-08-17T14:29:37.277Z,7.70
2022-08-17T14:32:17.639Z,3.92
2022-08-17T14:34:46.192Z,4.45
2022-08-17T14:37:13.596Z,3.60
2022-08-17T14:39:41.110Z,6.88
2022-08-17T14:42:11.520Z,7.38
2022-08-17T14:44:39.752Z,6.22
2022-08-17T14:47:12.784Z,6.13
2022-08-17T14:49:40.038Z,13.32
2022-08-17T14:52:07.309Z,11.82
2022-08-17T14:54:34.797Z,11.43
2022-08-17T14:57:22.495Z,7.78
2022-08-17T14:59:54.643Z,14.25
2022-08-17T15:02:29.268Z,5.03
2022-08-17T15:05:03.221Z,6.23
2022-08-17T15:07:32.477Z,10.60
2022-08-17T15:10:02.905Z,10.10
2022-08-17T15:12:33.998Z,4.57
2022-08-17T15:15:06.605Z,5.68
2022-08-17T15:17:44.397Z,7.03
2022-08-17T15:20:27.689Z,8.07
2022-08-17T15:22:57.565Z,4.60
2022-08-17T15:25:27.799Z,11.10
2022-08-17T15:27:56.068Z,7.57
2022-08-17T15:30:23.857Z,10.98
2022-08-17T15:32:55.044Z,9.30
2022-08-17T15:35:28.042Z,10.27
2022-08-17T15:38:12.137Z,7.65
2022-08-17T15:40:46.239Z,8.68
2022-08-17T15:43:24.799Z,9.23
2022-08-17T15:46:04.598Z,6.28
2022-08-17T15:48:43.757Z,7.85
2022-08-17T15:51:27.209Z,6.60
2022-08-17T15:54:04.598Z,9.55
2022-08-17T15:56:47.055Z,6.75
2022-08-17T15:59:14.277Z,9.50
2022-08-17T16:03:04.649Z,9.10
2022-08-17T16:04:29.986Z,4.95
2022-08-17T16:06:59.368Z,6.22
2022-08-17T16:09:27.304Z,12.40
2022-08-17T16:11:56.418Z,7.97
2022-08-17T16:14:32.342Z,6.90
2022-08-17T16:17:03.842Z,4.55
2022-08-17T16:19:31.097Z,6.22
2022-08-17T16:21:58.644Z,6.45
2022-08-17T16:24:26.249Z,6.60
2022-08-17T16:26:55.501Z,5.60
2022-08-17T16:29:23.130Z,6.60
2022-08-17T16:31:51.684Z,8.05
2022-08-17T16:34:19.119Z,5.68
2022-08-17T16:36:55.110Z,4.88
2022-08-17T16:39:29.467Z,7.68
2022-08-17T16:41:57.620Z,7.85
2022-08-17T16:44:26.007Z,9.10
2022-08-17T16:46:53.973Z,8.10
2022-08-17T16:49:35.466Z,10.32
2022-08-17T16:52:05.128Z,15.57
2022-08-17T16:54:32.712Z,11.68
2022-08-17T16:56:59.675Z,20.95
2022-08-17T16:59:38.776Z,15.80
2022-08-17T17:02:12.885Z,10.35
2022-08-17T17:04:48.189Z,8.75
2022-08-17T17:07:44.229Z,13.02
2022-08-17T17:10:15.579Z,7.90
2022-08-17T17:13:02.835Z,11.95
2022-08-17T17:16:01.257Z,11.00
2022-08-17T17:18:56.278Z,8.73
2022-08-17T17:21:31.573Z,14.40
2022-08-17T17:24:10.423Z,11.90
2022-08-17T17:27:21.296Z,7.68
2022-08-17T17:30:04.358Z,11.52
2022-08-17T17:32:39.660Z,10.18
2022-08-17T17:35:16.007Z,11.25
2022-08-17T17:37:46.291Z,12.30
2022-08-17T17:40:20.770Z,11.30
2022-08-17T17:42:51.536Z,11.18
2022-08-17T17:45:26.500Z,10.27
2022-08-17T17:47:53.809Z,17.13
2022-08-17T17:50:30.417Z,8.10
2022-08-17T17:53:10.026Z,11.80
2022-08-17T17:56:34.347Z,11.45
2022-08-17T17:59:12.530Z,11.27
2022-08-17T18:01:58.688Z,13.27
2022-08-17T18:04:50.319Z,14.30
2022-08-17T18:07:42.989Z,11.80
2022-08-17T18:10:40.812Z,9.25
2022-08-17T18:13:40.616Z,16.20
2022-08-17T18:16:14.280Z,10.00
2022-08-17T18:18:44.795Z,13.25
2022-08-17T18:21:20.352Z,18.38
2022-08-17T18:23:53.966Z,9.48
2022-08-17T18:26:33.708Z,16.08
2022-08-17T18:29:11.727Z,15.75
2022-08-17T18:31:39.074Z,10.30
2022-08-17T18:34:45.786Z,12.27
2022-08-17T18:37:12.712Z,9.90
2022-08-17T18:39:44.247Z,7.80
2022-08-17T18:42:27.985Z,11.70
2022-08-17T18:44:55.874Z,10.43
2022-08-17T18:47:29.902Z,9.32
2022-08-17T18:50:18.340Z,9.25
2022-08-17T18:52:49.073Z,8.90
2022-08-17T18:55:21.036Z,10.30
2022-08-17T18:57:55.828Z,12.65
2022-08-17T19:00:40.630Z,11.23
2022-08-17T19:03:20.128Z,20.80
2022-08-17T19:05:52.293Z,9.40
2022-08-17T19:08:28.765Z,12.65
2022-08-17T19:13:39.605Z,12.88
2022-08-17T19:16:25.250Z,18.17
2022-08-17T19:18:59.157Z,14.77
2022-08-17T19:21:52.613Z,13.98
2022-08-17T19:24:23.272Z,22.20
2022-08-17T19:26:59.669Z,18.45
2022-08-17T19:29:57.904Z,10.32
2022-08-17T19:32:29.184Z,12.85
2022-08-17T19:34:57.626Z,9.30
2022-08-17T19:37:33.554Z,14.85
2022-08-17T19:40:10.115Z,10.30
2022-08-17T19:42:47.345Z,15.38
2022-08-17T19:45:33.109Z,18.60
2022-08-17T19:48:20.037Z,13.02
2022-08-17T19:50:54.210Z,21.05
2022-08-17T19:54:04.827Z,12.88
2022-08-17T19:56:45.479Z,13.40
2022-08-17T19:59:36.018Z,17.45
2022-08-17T20:02:31.205Z,17.40
2022-08-17T20:05:06.267Z,12.27
2022-08-17T20:07:49.840Z,18.30
2022-08-17T20:10:55.462Z,13.00
2022-08-17T20:13:32.782Z,11.18
2022-08-17T20:16:01.713Z,14.85
2022-08-17T20:18:52.430Z,20.45
2022-08-17T20:21:25.802Z,14.98
2022-08-17T20:23:59.269Z,12.25
2022-08-17T20:26:39.042Z,12.02
2022-08-17T20:29:37.570Z,20.95
2022-08-17T20:32:17.971Z,11.95
2022-08-17T20:34:46.979Z,10.63
2022-08-17T20:37:14.344Z,17.25
2022-08-17T20:39:49.638Z,12.23
2022-08-17T20:42:19.961Z,18.70
2022-08-17T20:44:49.113Z,11.75
2022-08-17T20:47:26.952Z,11.60
2022-08-17T20:49:57.599Z,10.93
2022-08-17T20:52:49.711Z,11.80
2022-08-17T20:55:51.770Z,12.57
2022-08-17T20:58:30.765Z,17.70
2022-08-17T21:01:01.778Z,15.95
2022-08-17T21:03:47.934Z,12.98
2022-08-17T21:06:19.438Z,9.60
2022-08-17T21:09:13.200Z,12.88
2022-08-17T21:11:56.989Z,8.35
2022-08-17T21:14:38.632Z,13.65
2022-08-17T21:17:29.712Z,11.73
2022-08-17T21:20:13.279Z,15.18
2022-08-17T21:22:51.316Z,9.68
2022-08-17T21:25:39.004Z,12.20
2022-08-17T21:28:20.588Z,12.43
2022-08-17T21:30:57.122Z,17.52
2022-08-17T21:33:34.182Z,15.52
2022-08-17T21:36:14.523Z,17.30
2022-08-17T21:38:57.779Z,13.05
2022-08-17T21:41:30.544Z,11.75
2022-08-17T21:44:19.521Z,11.85
2022-08-17T21:46:50.673Z,8.75
2022-08-17T21:49:21.472Z,11.60
2022-08-17T21:51:56.467Z,12.18
2022-08-17T21:54:42.719Z,15.38
2022-08-17T21:57:31.055Z,14.20
2022-08-17T22:00:01.414Z,11.35
2022-08-17T22:02:36.804Z,15.90
2022-08-17T22:05:15.393Z,16.38
2022-08-17T22:07:47.753Z,16.77
2022-08-17T22:10:32.321Z,10.65
2022-08-17T22:13:20.143Z,12.43
2022-08-17T22:15:51.230Z,8.10
2022-08-17T22:18:27.428Z,12.30
2022-08-17T22:21:04.739Z,8.52
2022-08-17T22:23:58.080Z,15.90
2022-08-17T22:27:02.731Z,14.80
2022-08-17T22:29:57.889Z,12.57
2022-08-17T22:32:43.160Z,12.95
2022-08-17T22:35:31.806Z,10.30
2022-08-17T22:38:22.157Z,12.43
2022-08-17T22:40:59.094Z,15.40
2022-08-17T22:43:28.817Z,14.00
2022-08-17T22:45:59.317Z,12.75
2022-08-17T22:48:29.948Z,7.95
2022-08-17T22:51:13.831Z,14.10
2022-08-17T22:54:09.257Z,10.48
2022-08-17T22:56:55.806Z,9.27
2022-08-17T22:59:50.107Z,10.77
2022-08-17T23:02:35.483Z,8.32
2022-08-17T23:07:46.837Z,13.80
2022-08-17T23:10:14.913Z,8.50
2022-08-17T23:12:42.422Z,14.00
2022-08-17T23:15:16.045Z,7.28
2022-08-17T23:17:46.092Z,12.98
2022-08-17T23:20:15.224Z,12.05
2022-08-17T23:22:51.694Z,12.00
2022-08-17T23:25:31.896Z,13.02
2022-08-17T23:28:01.835Z,9.80
2022-08-17T23:30:31.752Z,11.80
2022-08-17T23:33:06.380Z,14.75
2022-08-17T23:35:39.966Z,8.68
2022-08-17T23:38:10.822Z,13.90
2022-08-17T23:40:39.342Z,7.05
2022-08-17T23:43:25.314Z,11.98
2022-08-17T23:45:57.681Z,9.75
2022-08-17T23:48:32.573Z,8.95
2022-08-17T23:51:09.208Z,14.65
2022-08-17T23:53:42.063Z,13.15
2022-08-17T23:56:11.075Z,11.15
2022-08-17T23:58:43.995Z,11.77
